sensor_id;sensor_type;location;lat;lon;timestamp;temperature;humidity
17879;DHT22;9065;51.050;13.758;2023-04-03T00:00:31;6.30;99.90
17879;DHT22;9065;51.050;13.758;2023-04-03T00:02:58;6.30;99.90
17879;DHT22;9065;51.050;13.758;2023-04-03T00:05:25;6.30;99.90
17879;DHT22;9065;51.050;13.758;2023-04-03T00:07:53;6.30;99.90
17879;DHT22;9065;51.050;13.758;2023-04-03T00:10:20;6.30;99.90
17879;DHT22;9065;51.050;13.758;2023-04-03T00:12:47;6.30;99.90
17879;DHT22;9065;51.050;13.758;2023-04-03T00:15:14;6.30;99.90
17879;DHT22;9065;51.050;13.758;2023-04-03T00:17:41;6.30;99.90
17879;DHT22;9065;51.050;13.758;2023-04-03T00:20:08;6.30;99.90
17879;DHT22;9065;51.050;13.758;2023-04-03T00:22:35;6.20;99.90
17879;DHT22;9065;51.050;13.758;2023-04-03T00:25:04;6.20;99.90
17879;DHT22;9065;51.050;13.758;2023-04-03T00:27:31;6.20;99.90
17879;DHT22;9065;51.050;13.758;2023-04-03T00:29:58;6.10;99.90
17879;DHT22;9065;51.050;13.758;2023-04-03T00:32:24;6.10;99.90
17879;DHT22;9065;51.050;13.758;2023-04-03T00:34:51;6.10;99.90
17879;DHT22;9065;51.050;13.758;2023-04-03T00:37:18;6.20;99.90
17879;DHT22;9065;51.050;13.758;2023-04-03T00:39:44;6.20;99.90
17879;DHT22;9065;51.050;13.758;2023-04-03T00:42:13;6.30;99.90
17879;DHT22;9065;51.050;13.758;2023-04-03T00:47:44;6.20;99.90
17879;DHT22;9065;51.050;13.758;2023-04-03T00:50:11;6.10;99.90
17879;DHT22;9065;51.050;13.758;2023-04-03T00:52:38;6.00;99.90
17879;DHT22;9065;51.050;13.758;2023-04-03T00:55:07;6.00;99.90
17879;DHT22;9065;51.050;13.758;2023-04-03T00:57:36;6.00;99.90
17879;DHT22;9065;51.050;13.758;2023-04-03T01:00:06;6.00;99.90
17879;DHT22;9065;51.050;13.758;2023-04-03T01:02:35;5.90;99.90
17879;DHT22;9065;51.050;13.758;2023-04-03T01:05:02;5.90;99.90
17879;DHT22;9065;51.050;13.758;2023-04-03T01:07:30;5.80;99.90
17879;DHT22;9065;51.050;13.758;2023-04-03T01:10:00;5.80;99.90
17879;DHT22;9065;51.050;13.758;2023-04-03T01:12:30;5.70;99.90
17879;DHT22;9065;51.050;13.758;2023-04-03T01:15:00;5.70;99.90
17879;DHT22;9065;51.050;13.758;2023-04-03T01:17:29;5.70;99.90
17879;DHT22;9065;51.050;13.758;2023-04-03T01:22:52;5.80;99.90
17879;DHT22;9065;51.050;13.758;2023-04-03T01:25:23;5.90;99.90
17879;DHT22;9065;51.050;13.758;2023-04-03T01:27:49;5.80;99.90
17879;DHT22;9065;51.050;13.758;2023-04-03T01:30:20;5.70;99.90
17879;DHT22;9065;51.050;13.758;2023-04-03T01:32:50;5.70;99.90
17879;DHT22;9065;51.050;13.758;2023-04-03T01:35:16;5.80;99.90
17879;DHT22;9065;51.050;13.758;2023-04-03T01:37:43;5.70;99.90
17879;DHT22;9065;51.050;13.758;2023-04-03T01:40:10;5.60;99.90
17879;DHT22;9065;51.050;13.758;2023-04-03T01:42:37;5.60;99.90
17879;DHT22;9065;51.050;13.758;2023-04-03T01:45:05;5.50;99.90
17879;DHT22;9065;51.050;13.758;2023-04-03T01:47:32;5.40;99.90
17879;DHT22;9065;51.050;13.758;2023-04-03T01:50:01;5.30;99.90
17879;DHT22;9065;51.050;13.758;2023-04-03T01:52:28;5.30;99.90
17879;DHT22;9065;51.050;13.758;2023-04-03T01:54:55;5.30;99.90
17879;DHT22;9065;51.050;13.758;2023-04-03T01:57:22;5.30;99.90
17879;DHT22;9065;51.050;13.758;2023-04-03T01:59:49;5.20;99.90
17879;DHT22;9065;51.050;13.758;2023-04-03T02:02:16;5.20;99.90
17879;DHT22;9065;51.050;13.758;2023-04-03T02:04:44;5.10;99.90
17879;DHT22;9065;51.050;13.758;2023-04-03T02:07:13;5.10;99.90
17879;DHT22;9065;51.050;13.758;2023-04-03T02:09:39;5.10;99.90
17879;DHT22;9065;51.050;13.758;2023-04-03T02:12:06;5.00;99.90
17879;DHT22;9065;51.050;13.758;2023-04-03T02:14:33;5.00;99.90
17879;DHT22;9065;51.050;13.758;2023-04-03T02:17:04;5.00;99.90
17879;DHT22;9065;51.050;13.758;2023-04-03T02:19:34;4.90;99.90
17879;DHT22;9065;51.050;13.758;2023-04-03T02:22:01;4.90;99.90
17879;DHT22;9065;51.050;13.758;2023-04-03T02:24:29;4.80;99.90
17879;DHT22;9065;51.050;13.758;2023-04-03T02:26:56;4.80;99.90
17879;DHT22;9065;51.050;13.758;2023-04-03T02:29:23;4.70;99.90
17879;DHT22;9065;51.050;13.758;2023-04-03T02:31:50;4.70;99.90
17879;DHT22;9065;51.050;13.758;2023-04-03T02:34:18;4.70;99.90
17879;DHT22;9065;51.050;13.758;2023-04-03T02:36:44;4.70;99.90
17879;DHT22;9065;51.050;13.758;2023-04-03T02:39:11;4.70;99.90
17879;DHT22;9065;51.050;13.758;2023-04-03T02:41:40;4.70;99.90
17879;DHT22;9065;51.050;13.758;2023-04-03T02:44:11;4.60;99.90
17879;DHT22;9065;51.050;13.758;2023-04-03T02:46:38;4.50;99.90
17879;DHT22;9065;51.050;13.758;2023-04-03T02:49:05;4.60;99.90
17879;DHT22;9065;51.050;13.758;2023-04-03T02:51:32;4.50;99.90
17879;DHT22;9065;51.050;13.758;2023-04-03T02:53:59;4.50;99.90
17879;DHT22;9065;51.050;13.758;2023-04-03T02:56:26;4.60;99.90
17879;DHT22;9065;51.050;13.758;2023-04-03T02:58:54;4.50;99.90
17879;DHT22;9065;51.050;13.758;2023-04-03T03:01:21;4.50;99.90
17879;DHT22;9065;51.050;13.758;2023-04-03T03:03:48;4.40;99.90
17879;DHT22;9065;51.050;13.758;2023-04-03T03:06:16;4.40;99.90
17879;DHT22;9065;51.050;13.758;2023-04-03T03:08:43;4.40;99.90
17879;DHT22;9065;51.050;13.758;2023-04-03T03:11:11;4.30;99.90
17879;DHT22;9065;51.050;13.758;2023-04-03T03:13:37;4.20;99.90
17879;DHT22;9065;51.050;13.758;2023-04-03T03:16:06;4.10;99.90
17879;DHT22;9065;51.050;13.758;2023-04-03T03:18:33;4.10;99.90
17879;DHT22;9065;51.050;13.758;2023-04-03T03:21:02;4.10;99.90
17879;DHT22;9065;51.050;13.758;2023-04-03T03:23:30;4.20;99.90
17879;DHT22;9065;51.050;13.758;2023-04-03T03:26:00;4.00;99.90
17879;DHT22;9065;51.050;13.758;2023-04-03T03:28:27;3.90;99.90
17879;DHT22;9065;51.050;13.758;2023-04-03T03:30:54;3.90;99.90
17879;DHT22;9065;51.050;13.758;2023-04-03T03:33:22;3.90;99.90
17879;DHT22;9065;51.050;13.758;2023-04-03T03:35:49;3.70;99.90
17879;DHT22;9065;51.050;13.758;2023-04-03T03:38:16;3.70;99.90
17879;DHT22;9065;51.050;13.758;2023-04-03T03:40:43;3.70;99.90
17879;DHT22;9065;51.050;13.758;2023-04-03T03:43:10;3.70;99.90
17879;DHT22;9065;51.050;13.758;2023-04-03T03:45:36;3.80;99.90
17879;DHT22;9065;51.050;13.758;2023-04-03T03:48:05;3.70;99.90
17879;DHT22;9065;51.050;13.758;2023-04-03T03:50:33;3.70;99.90
17879;DHT22;9065;51.050;13.758;2023-04-03T03:53:00;3.60;99.90
17879;DHT22;9065;51.050;13.758;2023-04-03T03:55:26;3.60;99.90
17879;DHT22;9065;51.050;13.758;2023-04-03T03:57:53;3.40;99.90
17879;DHT22;9065;51.050;13.758;2023-04-03T04:00:20;3.40;99.90
17879;DHT22;9065;51.050;13.758;2023-04-03T04:02:47;3.30;99.90
17879;DHT22;9065;51.050;13.758;2023-04-03T04:05:14;3.30;99.90
17879;DHT22;9065;51.050;13.758;2023-04-03T04:07:42;3.40;99.90
17879;DHT22;9065;51.050;13.758;2023-04-03T04:10:09;3.30;99.90
17879;DHT22;9065;51.050;13.758;2023-04-03T04:12:36;3.30;99.90
17879;DHT22;9065;51.050;13.758;2023-04-03T04:15:05;3.20;99.90
17879;DHT22;9065;51.050;13.758;2023-04-03T04:17:32;3.10;99.90
17879;DHT22;9065;51.050;13.758;2023-04-03T04:20:00;3.00;99.90
17879;DHT22;9065;51.050;13.758;2023-04-03T04:22:28;3.00;99.90
17879;DHT22;9065;51.050;13.758;2023-04-03T04:24:56;3.00;99.90
17879;DHT22;9065;51.050;13.758;2023-04-03T04:27:23;3.00;99.90
17879;DHT22;9065;51.050;13.758;2023-04-03T04:29:49;3.00;99.90
17879;DHT22;9065;51.050;13.758;2023-04-03T04:32:16;2.90;99.90
17879;DHT22;9065;51.050;13.758;2023-04-03T04:34:43;2.90;99.90
17879;DHT22;9065;51.050;13.758;2023-04-03T04:37:10;3.00;99.90
17879;DHT22;9065;51.050;13.758;2023-04-03T04:39:37;3.00;99.90
17879;DHT22;9065;51.050;13.758;2023-04-03T04:42:06;3.00;99.90
17879;DHT22;9065;51.050;13.758;2023-04-03T04:44:38;2.90;99.90
17879;DHT22;9065;51.050;13.758;2023-04-03T04:47:05;2.90;99.90
17879;DHT22;9065;51.050;13.758;2023-04-03T04:49:31;2.90;99.90
17879;DHT22;9065;51.050;13.758;2023-04-03T04:51:58;2.90;99.90
17879;DHT22;9065;51.050;13.758;2023-04-03T04:54:25;2.90;99.90
17879;DHT22;9065;51.050;13.758;2023-04-03T04:56:53;2.80;99.90
17879;DHT22;9065;51.050;13.758;2023-04-03T04:59:21;2.80;99.90
17879;DHT22;9065;51.050;13.758;2023-04-03T05:01:48;2.90;99.90
17879;DHT22;9065;51.050;13.758;2023-04-03T05:04:15;3.00;99.90
17879;DHT22;9065;51.050;13.758;2023-04-03T05:06:42;2.90;99.90
17879;DHT22;9065;51.050;13.758;2023-04-03T05:09:09;3.00;99.90
17879;DHT22;9065;51.050;13.758;2023-04-03T05:11:39;3.00;99.90
17879;DHT22;9065;51.050;13.758;2023-04-03T05:14:06;3.10;99.90
17879;DHT22;9065;51.050;13.758;2023-04-03T05:16:35;3.10;99.90
17879;DHT22;9065;51.050;13.758;2023-04-03T05:19:01;3.20;99.90
17879;DHT22;9065;51.050;13.758;2023-04-03T05:21:30;3.30;99.90
17879;DHT22;9065;51.050;13.758;2023-04-03T05:23:59;3.40;99.90
17879;DHT22;9065;51.050;13.758;2023-04-03T05:26:28;3.40;99.90
17879;DHT22;9065;51.050;13.758;2023-04-03T05:28:55;3.40;99.90
17879;DHT22;9065;51.050;13.758;2023-04-03T05:31:23;3.40;99.90
17879;DHT22;9065;51.050;13.758;2023-04-03T05:33:52;3.50;99.90
17879;DHT22;9065;51.050;13.758;2023-04-03T05:36:19;3.60;99.90
17879;DHT22;9065;51.050;13.758;2023-04-03T05:38:52;3.60;99.90
17879;DHT22;9065;51.050;13.758;2023-04-03T05:41:22;3.60;99.90
17879;DHT22;9065;51.050;13.758;2023-04-03T05:43:52;3.80;99.90
17879;DHT22;9065;51.050;13.758;2023-04-03T05:46:24;3.80;99.90
17879;DHT22;9065;51.050;13.758;2023-04-03T05:49:01;3.90;99.90
17879;DHT22;9065;51.050;13.758;2023-04-03T05:51:35;4.00;99.90
17879;DHT22;9065;51.050;13.758;2023-04-03T05:54:09;4.30;99.90
17879;DHT22;9065;51.050;13.758;2023-04-03T05:56:36;4.30;99.90
17879;DHT22;9065;51.050;13.758;2023-04-03T05:59:12;4.40;99.90
17879;DHT22;9065;51.050;13.758;2023-04-03T06:01:44;4.40;99.90
17879;DHT22;9065;51.050;13.758;2023-04-03T06:04:26;4.60;99.90
17879;DHT22;9065;51.050;13.758;2023-04-03T06:07:19;4.60;99.90
17879;DHT22;9065;51.050;13.758;2023-04-03T06:10:00;4.60;99.90
17879;DHT22;9065;51.050;13.758;2023-04-03T06:12:30;4.60;99.90
17879;DHT22;9065;51.050;13.758;2023-04-03T06:14:57;4.60;99.90
17879;DHT22;9065;51.050;13.758;2023-04-03T06:17:24;4.50;99.90
17879;DHT22;9065;51.050;13.758;2023-04-03T06:20:03;4.50;99.90
17879;DHT22;9065;51.050;13.758;2023-04-03T06:22:35;4.60;99.90
17879;DHT22;9065;51.050;13.758;2023-04-03T06:25:04;4.60;99.90
17879;DHT22;9065;51.050;13.758;2023-04-03T06:27:31;4.60;99.90
17879;DHT22;9065;51.050;13.758;2023-04-03T06:29:58;4.80;99.90
17879;DHT22;9065;51.050;13.758;2023-04-03T06:32:26;4.60;99.90
17879;DHT22;9065;51.050;13.758;2023-04-03T06:34:54;4.60;99.90
17879;DHT22;9065;51.050;13.758;2023-04-03T06:37:27;4.40;99.90
17879;DHT22;9065;51.050;13.758;2023-04-03T06:39:56;4.40;99.90
17879;DHT22;9065;51.050;13.758;2023-04-03T06:42:24;4.50;99.90
17879;DHT22;9065;51.050;13.758;2023-04-03T06:44:52;4.60;99.90
17879;DHT22;9065;51.050;13.758;2023-04-03T06:47:19;4.60;99.90
17879;DHT22;9065;51.050;13.758;2023-04-03T06:49:46;4.60;99.90
17879;DHT22;9065;51.050;13.758;2023-04-03T06:52:18;4.60;99.90
17879;DHT22;9065;51.050;13.758;2023-04-03T06:54:50;4.50;99.90
17879;DHT22;9065;51.050;13.758;2023-04-03T06:57:22;4.40;99.90
17879;DHT22;9065;51.050;13.758;2023-04-03T06:59:54;4.50;99.90
17879;DHT22;9065;51.050;13.758;2023-04-03T07:02:21;4.60;99.90
17879;DHT22;9065;51.050;13.758;2023-04-03T07:04:51;4.70;99.90
17879;DHT22;9065;51.050;13.758;2023-04-03T07:07:18;4.80;99.90
17879;DHT22;9065;51.050;13.758;2023-04-03T07:09:47;4.70;99.90
17879;DHT22;9065;51.050;13.758;2023-04-03T07:12:15;4.50;99.90
17879;DHT22;9065;51.050;13.758;2023-04-03T07:14:42;4.40;99.90
17879;DHT22;9065;51.050;13.758;2023-04-03T07:17:12;4.60;99.90
17879;DHT22;9065;51.050;13.758;2023-04-03T07:19:39;4.70;99.90
17879;DHT22;9065;51.050;13.758;2023-04-03T07:22:09;4.90;99.90
17879;DHT22;9065;51.050;13.758;2023-04-03T07:24:40;5.00;99.90
17879;DHT22;9065;51.050;13.758;2023-04-03T07:27:09;4.90;99.90
17879;DHT22;9065;51.050;13.758;2023-04-03T07:29:42;4.90;99.90
17879;DHT22;9065;51.050;13.758;2023-04-03T07:32:26;4.70;99.90
17879;DHT22;9065;51.050;13.758;2023-04-03T07:34:56;4.20;99.90
17879;DHT22;9065;51.050;13.758;2023-04-03T07:37:37;4.00;99.90
17879;DHT22;9065;51.050;13.758;2023-04-03T07:40:06;3.90;99.90
17879;DHT22;9065;51.050;13.758;2023-04-03T07:42:38;3.90;99.90
17879;DHT22;9065;51.050;13.758;2023-04-03T07:45:05;3.90;99.90
17879;DHT22;9065;51.050;13.758;2023-04-03T07:47:36;3.80;99.90
17879;DHT22;9065;51.050;13.758;2023-04-03T07:50:04;3.90;99.90
17879;DHT22;9065;51.050;13.758;2023-04-03T07:52:41;3.80;99.90
17879;DHT22;9065;51.050;13.758;2023-04-03T07:55:08;3.90;99.90
17879;DHT22;9065;51.050;13.758;2023-04-03T07:57:40;4.00;99.90
17879;DHT22;9065;51.050;13.758;2023-04-03T08:00:11;4.20;99.90
17879;DHT22;9065;51.050;13.758;2023-04-03T08:02:38;4.20;99.90
17879;DHT22;9065;51.050;13.758;2023-04-03T08:05:14;4.20;99.90
17879;DHT22;9065;51.050;13.758;2023-04-03T08:07:41;4.10;99.90
17879;DHT22;9065;51.050;13.758;2023-04-03T08:10:11;4.40;99.90
17879;DHT22;9065;51.050;13.758;2023-04-03T08:12:46;4.60;99.90
17879;DHT22;9065;51.050;13.758;2023-04-03T08:15:16;4.80;99.90
17879;DHT22;9065;51.050;13.758;2023-04-03T08:17:43;5.00;99.90
17879;DHT22;9065;51.050;13.758;2023-04-03T08:20:11;4.90;99.90
17879;DHT22;9065;51.050;13.758;2023-04-03T08:22:40;4.80;99.90
17879;DHT22;9065;51.050;13.758;2023-04-03T08:25:11;4.70;99.90
17879;DHT22;9065;51.050;13.758;2023-04-03T08:27:45;4.70;99.90
17879;DHT22;9065;51.050;13.758;2023-04-03T08:30:14;4.70;99.90
17879;DHT22;9065;51.050;13.758;2023-04-03T08:32:44;4.90;99.90
17879;DHT22;9065;51.050;13.758;2023-04-03T08:35:30;5.00;99.90
17879;DHT22;9065;51.050;13.758;2023-04-03T08:38:00;5.10;99.90
17879;DHT22;9065;51.050;13.758;2023-04-03T08:40:30;5.00;99.90
17879;DHT22;9065;51.050;13.758;2023-04-03T08:43:06;5.10;99.90
17879;DHT22;9065;51.050;13.758;2023-04-03T08:45:45;5.20;99.90
17879;DHT22;9065;51.050;13.758;2023-04-03T08:48:16;5.20;99.90
17879;DHT22;9065;51.050;13.758;2023-04-03T08:50:46;5.00;99.90
17879;DHT22;9065;51.050;13.758;2023-04-03T08:53:21;5.10;99.90
17879;DHT22;9065;51.050;13.758;2023-04-03T08:55:50;5.10;99.90
17879;DHT22;9065;51.050;13.758;2023-04-03T08:58:21;5.40;99.90
17879;DHT22;9065;51.050;13.758;2023-04-03T09:00:51;5.50;99.90
17879;DHT22;9065;51.050;13.758;2023-04-03T09:03:23;5.80;99.90
17879;DHT22;9065;51.050;13.758;2023-04-03T09:05:55;6.10;99.90
17879;DHT22;9065;51.050;13.758;2023-04-03T09:08:27;6.10;99.90
17879;DHT22;9065;51.050;13.758;2023-04-03T09:11:07;6.40;99.90
17879;DHT22;9065;51.050;13.758;2023-04-03T09:13:47;6.40;99.90
17879;DHT22;9065;51.050;13.758;2023-04-03T09:16:35;6.40;99.90
17879;DHT22;9065;51.050;13.758;2023-04-03T09:19:18;6.50;99.90
17879;DHT22;9065;51.050;13.758;2023-04-03T09:22:03;6.60;99.90
17879;DHT22;9065;51.050;13.758;2023-04-03T09:24:53;6.70;99.90
17879;DHT22;9065;51.050;13.758;2023-04-03T09:27:23;7.20;99.90
17879;DHT22;9065;51.050;13.758;2023-04-03T09:33:19;7.90;99.90
17879;DHT22;9065;51.050;13.758;2023-04-03T09:36:10;8.30;99.90
17879;DHT22;9065;51.050;13.758;2023-04-03T09:39:02;8.60;99.90
17879;DHT22;9065;51.050;13.758;2023-04-03T09:41:58;8.20;99.90
17879;DHT22;9065;51.050;13.758;2023-04-03T09:44:38;7.90;99.90
17879;DHT22;9065;51.050;13.758;2023-04-03T09:47:28;7.60;99.90
17879;DHT22;9065;51.050;13.758;2023-04-03T09:50:25;7.40;99.90
17879;DHT22;9065;51.050;13.758;2023-04-03T09:53:28;7.20;99.90
17879;DHT22;9065;51.050;13.758;2023-04-03T09:56:00;7.20;99.90
17879;DHT22;9065;51.050;13.758;2023-04-03T09:58:44;7.50;99.90
17879;DHT22;9065;51.050;13.758;2023-04-03T10:01:41;7.60;99.90
17879;DHT22;9065;51.050;13.758;2023-04-03T10:07:32;8.10;99.90
17879;DHT22;9065;51.050;13.758;2023-04-03T10:10:19;8.10;99.90
17879;DHT22;9065;51.050;13.758;2023-04-03T10:13:21;7.70;99.90
17879;DHT22;9065;51.050;13.758;2023-04-03T10:16:11;7.40;99.90
17879;DHT22;9065;51.050;13.758;2023-04-03T10:25:27;7.10;99.90
17879;DHT22;9065;51.050;13.758;2023-04-03T10:28:06;7.30;99.90
17879;DHT22;9065;51.050;13.758;2023-04-03T10:30:53;7.90;99.90
17879;DHT22;9065;51.050;13.758;2023-04-03T10:33:56;9.40;99.90
17879;DHT22;9065;51.050;13.758;2023-04-03T10:36:38;11.00;99.90
17879;DHT22;9065;51.050;13.758;2023-04-03T10:39:17;10.80;99.90
17879;DHT22;9065;51.050;13.758;2023-04-03T10:41:58;11.00;99.90
17879;DHT22;9065;51.050;13.758;2023-04-03T10:44:38;12.00;99.90
17879;DHT22;9065;51.050;13.758;2023-04-03T10:47:13;12.80;99.90
17879;DHT22;9065;51.050;13.758;2023-04-03T10:49:54;12.80;99.90
17879;DHT22;9065;51.050;13.758;2023-04-03T10:52:28;11.90;99.90
17879;DHT22;9065;51.050;13.758;2023-04-03T10:55:09;11.50;99.90
17879;DHT22;9065;51.050;13.758;2023-04-03T10:57:42;10.30;99.90
17879;DHT22;9065;51.050;13.758;2023-04-03T11:00:17;9.60;99.90
17879;DHT22;9065;51.050;13.758;2023-04-03T11:02:55;9.90;99.90
17879;DHT22;9065;51.050;13.758;2023-04-03T11:05:30;11.50;99.90
17879;DHT22;9065;51.050;13.758;2023-04-03T11:08:10;13.70;99.90
17879;DHT22;9065;51.050;13.758;2023-04-03T11:10:42;14.90;99.90
17879;DHT22;9065;51.050;13.758;2023-04-03T11:13:18;14.50;99.90
17879;DHT22;9065;51.050;13.758;2023-04-03T11:16:11;13.70;99.80
17879;DHT22;9065;51.050;13.758;2023-04-03T11:18:42;12.60;99.90
17879;DHT22;9065;51.050;13.758;2023-04-03T11:21:16;11.30;99.90
17879;DHT22;9065;51.050;13.758;2023-04-03T11:23:45;10.20;99.90
17879;DHT22;9065;51.050;13.758;2023-04-03T11:26:18;9.70;99.90
17879;DHT22;9065;51.050;13.758;2023-04-03T11:28:52;9.20;99.90
17879;DHT22;9065;51.050;13.758;2023-04-03T11:31:33;8.90;99.90
17879;DHT22;9065;51.050;13.758;2023-04-03T11:34:13;8.80;99.90
17879;DHT22;9065;51.050;13.758;2023-04-03T11:36:44;8.70;99.90
17879;DHT22;9065;51.050;13.758;2023-04-03T11:39:20;8.60;99.90
17879;DHT22;9065;51.050;13.758;2023-04-03T11:41:48;8.50;99.90
17879;DHT22;9065;51.050;13.758;2023-04-03T11:44:40;8.40;99.90
17879;DHT22;9065;51.050;13.758;2023-04-03T11:47:08;8.50;99.90
17879;DHT22;9065;51.050;13.758;2023-04-03T11:49:58;8.30;99.90
17879;DHT22;9065;51.050;13.758;2023-04-03T11:52:55;8.20;99.90
17879;DHT22;9065;51.050;13.758;2023-04-03T11:55:56;8.20;99.90
17879;DHT22;9065;51.050;13.758;2023-04-03T11:58:24;8.20;99.90
17879;DHT22;9065;51.050;13.758;2023-04-03T12:01:09;8.10;99.90
17879;DHT22;9065;51.050;13.758;2023-04-03T12:06:54;7.90;99.90
17879;DHT22;9065;51.050;13.758;2023-04-03T12:12:37;7.90;99.90
17879;DHT22;9065;51.050;13.758;2023-04-03T12:19:02;8.00;99.90
17879;DHT22;9065;51.050;13.758;2023-04-03T12:22:05;8.40;99.90
17879;DHT22;9065;51.050;13.758;2023-04-03T12:24:34;8.30;99.90
17879;DHT22;9065;51.050;13.758;2023-04-03T12:27:09;8.20;99.90
17879;DHT22;9065;51.050;13.758;2023-04-03T12:29:46;8.20;99.90
17879;DHT22;9065;51.050;13.758;2023-04-03T12:32:25;8.10;99.90
17879;DHT22;9065;51.050;13.758;2023-04-03T12:35:09;8.10;99.90
17879;DHT22;9065;51.050;13.758;2023-04-03T12:37:44;8.00;99.90
17879;DHT22;9065;51.050;13.758;2023-04-03T12:40:25;7.90;99.90
17879;DHT22;9065;51.050;13.758;2023-04-03T12:43:34;8.00;99.90
17879;DHT22;9065;51.050;13.758;2023-04-03T12:46:09;8.00;99.90
17879;DHT22;9065;51.050;13.758;2023-04-03T12:48:52;8.00;99.90
17879;DHT22;9065;51.050;13.758;2023-04-03T12:51:28;8.00;99.90
17879;DHT22;9065;51.050;13.758;2023-04-03T12:54:01;7.80;99.90
17879;DHT22;9065;51.050;13.758;2023-04-03T12:56:30;7.90;99.90
17879;DHT22;9065;51.050;13.758;2023-04-03T12:59:14;7.80;99.90
17879;DHT22;9065;51.050;13.758;2023-04-03T13:01:41;7.80;99.90
17879;DHT22;9065;51.050;13.758;2023-04-03T13:04:10;7.80;99.90
17879;DHT22;9065;51.050;13.758;2023-04-03T13:06:41;7.90;99.90
17879;DHT22;9065;51.050;13.758;2023-04-03T13:09:19;7.90;99.90
17879;DHT22;9065;51.050;13.758;2023-04-03T13:11:50;8.00;99.90
17879;DHT22;9065;51.050;13.758;2023-04-03T13:14:20;8.20;99.90
17879;DHT22;9065;51.050;13.758;2023-04-03T13:16:53;8.20;99.90
17879;DHT22;9065;51.050;13.758;2023-04-03T13:19:23;8.00;99.90
17879;DHT22;9065;51.050;13.758;2023-04-03T13:21:59;8.10;99.90
17879;DHT22;9065;51.050;13.758;2023-04-03T13:24:33;8.00;99.90
17879;DHT22;9065;51.050;13.758;2023-04-03T13:27:02;8.00;99.90
17879;DHT22;9065;51.050;13.758;2023-04-03T13:29:31;8.00;99.90
17879;DHT22;9065;51.050;13.758;2023-04-03T13:32:00;8.30;99.90
17879;DHT22;9065;51.050;13.758;2023-04-03T13:34:32;8.40;99.90
17879;DHT22;9065;51.050;13.758;2023-04-03T13:37:04;8.30;99.90
17879;DHT22;9065;51.050;13.758;2023-04-03T13:39:34;8.20;99.90
17879;DHT22;9065;51.050;13.758;2023-04-03T13:42:02;8.00;99.90
17879;DHT22;9065;51.050;13.758;2023-04-03T13:44:40;7.90;99.90
17879;DHT22;9065;51.050;13.758;2023-04-03T13:47:19;7.70;99.90
17879;DHT22;9065;51.050;13.758;2023-04-03T13:49:59;7.60;99.90
17879;DHT22;9065;51.050;13.758;2023-04-03T13:52:30;7.40;99.90
17879;DHT22;9065;51.050;13.758;2023-04-03T13:55:00;7.20;99.90
17879;DHT22;9065;51.050;13.758;2023-04-03T13:57:29;7.10;99.90
17879;DHT22;9065;51.050;13.758;2023-04-03T13:59:56;6.90;99.90
17879;DHT22;9065;51.050;13.758;2023-04-03T14:02:30;7.00;99.90
17879;DHT22;9065;51.050;13.758;2023-04-03T14:05:00;7.00;99.90
17879;DHT22;9065;51.050;13.758;2023-04-03T14:07:30;7.20;99.90
17879;DHT22;9065;51.050;13.758;2023-04-03T14:09:58;7.40;99.90
17879;DHT22;9065;51.050;13.758;2023-04-03T14:12:27;7.50;99.90
17879;DHT22;9065;51.050;13.758;2023-04-03T14:14:56;7.50;99.90
17879;DHT22;9065;51.050;13.758;2023-04-03T14:17:25;7.40;99.90
17879;DHT22;9065;51.050;13.758;2023-04-03T14:19:54;7.20;99.90
17879;DHT22;9065;51.050;13.758;2023-04-03T14:22:24;7.20;99.90
17879;DHT22;9065;51.050;13.758;2023-04-03T14:24:59;6.90;99.90
17879;DHT22;9065;51.050;13.758;2023-04-03T14:27:28;6.90;99.90
17879;DHT22;9065;51.050;13.758;2023-04-03T14:29:58;6.90;99.90
17879;DHT22;9065;51.050;13.758;2023-04-03T14:32:25;6.90;99.90
17879;DHT22;9065;51.050;13.758;2023-04-03T14:34:53;6.90;99.90
17879;DHT22;9065;51.050;13.758;2023-04-03T14:37:25;6.70;99.90
17879;DHT22;9065;51.050;13.758;2023-04-03T14:39:54;6.90;99.90
17879;DHT22;9065;51.050;13.758;2023-04-03T14:42:29;6.90;99.90
17879;DHT22;9065;51.050;13.758;2023-04-03T14:44:57;6.80;99.90
17879;DHT22;9065;51.050;13.758;2023-04-03T14:47:27;6.90;99.90
17879;DHT22;9065;51.050;13.758;2023-04-03T14:49:54;6.90;99.90
17879;DHT22;9065;51.050;13.758;2023-04-03T14:52:23;6.90;99.90
17879;DHT22;9065;51.050;13.758;2023-04-03T14:54:53;7.00;99.90
17879;DHT22;9065;51.050;13.758;2023-04-03T14:57:21;6.80;99.90
17879;DHT22;9065;51.050;13.758;2023-04-03T14:59:52;6.80;99.90
17879;DHT22;9065;51.050;13.758;2023-04-03T15:02:37;6.80;99.90
17879;DHT22;9065;51.050;13.758;2023-04-03T15:05:07;6.70;99.90
17879;DHT22;9065;51.050;13.758;2023-04-03T15:07:36;6.60;99.90
17879;DHT22;9065;51.050;13.758;2023-04-03T15:10:15;6.60;99.90
17879;DHT22;9065;51.050;13.758;2023-04-03T15:12:42;6.60;99.90
17879;DHT22;9065;51.050;13.758;2023-04-03T15:15:11;6.70;99.90
17879;DHT22;9065;51.050;13.758;2023-04-03T15:17:38;6.70;99.90
17879;DHT22;9065;51.050;13.758;2023-04-03T15:20:12;6.70;99.90
17879;DHT22;9065;51.050;13.758;2023-04-03T15:22:39;6.60;99.90
17879;DHT22;9065;51.050;13.758;2023-04-03T15:25:07;6.50;99.90
17879;DHT22;9065;51.050;13.758;2023-04-03T15:27:35;6.50;99.90
17879;DHT22;9065;51.050;13.758;2023-04-03T15:30:03;6.50;99.90
17879;DHT22;9065;51.050;13.758;2023-04-03T15:32:47;6.50;99.90
17879;DHT22;9065;51.050;13.758;2023-04-03T15:35:14;6.60;99.90
17879;DHT22;9065;51.050;13.758;2023-04-03T15:37:41;6.50;99.90
17879;DHT22;9065;51.050;13.758;2023-04-03T15:40:09;6.50;99.90
17879;DHT22;9065;51.050;13.758;2023-04-03T15:42:37;6.50;99.90
17879;DHT22;9065;51.050;13.758;2023-04-03T15:45:05;6.60;99.90
17879;DHT22;9065;51.050;13.758;2023-04-03T15:47:32;6.60;99.90
17879;DHT22;9065;51.050;13.758;2023-04-03T15:50:00;6.60;99.90
17879;DHT22;9065;51.050;13.758;2023-04-03T15:52:27;6.60;99.90
17879;DHT22;9065;51.050;13.758;2023-04-03T15:54:54;6.60;99.90
17879;DHT22;9065;51.050;13.758;2023-04-03T15:57:21;6.50;99.90
17879;DHT22;9065;51.050;13.758;2023-04-03T15:59:51;6.40;99.90
17879;DHT22;9065;51.050;13.758;2023-04-03T16:02:18;6.50;99.90
17879;DHT22;9065;51.050;13.758;2023-04-03T16:04:45;6.50;99.90
17879;DHT22;9065;51.050;13.758;2023-04-03T16:07:13;6.40;99.90
17879;DHT22;9065;51.050;13.758;2023-04-03T16:09:40;6.30;99.90
17879;DHT22;9065;51.050;13.758;2023-04-03T16:12:07;6.30;99.90
17879;DHT22;9065;51.050;13.758;2023-04-03T16:14:36;6.20;99.90
17879;DHT22;9065;51.050;13.758;2023-04-03T16:17:03;6.10;99.90
17879;DHT22;9065;51.050;13.758;2023-04-03T16:19:31;6.10;99.90
17879;DHT22;9065;51.050;13.758;2023-04-03T16:21:59;6.10;99.90
17879;DHT22;9065;51.050;13.758;2023-04-03T16:24:27;6.00;99.90
17879;DHT22;9065;51.050;13.758;2023-04-03T16:26:54;6.00;99.90
17879;DHT22;9065;51.050;13.758;2023-04-03T16:29:21;5.90;99.90
17879;DHT22;9065;51.050;13.758;2023-04-03T16:31:48;5.90;99.90
17879;DHT22;9065;51.050;13.758;2023-04-03T16:34:15;5.90;99.90
17879;DHT22;9065;51.050;13.758;2023-04-03T16:36:42;5.80;99.90
17879;DHT22;9065;51.050;13.758;2023-04-03T16:39:10;5.70;99.90
17879;DHT22;9065;51.050;13.758;2023-04-03T16:41:38;5.70;99.90